Time;durP1;ratioP1;P1;durP2;ratioP2;P2;SDS_P1;SDS_P2;PMS_P1;PMS_P2;Temp;Humidity;BMP_temperature;BMP_pressure;BME280_temperature;BME280_humidity;BME280_pressure;Samples;Min_cycle;Max_cycle;Signal;HPM_P1;HPM_P2
2022/04/06 00:01:27;;;;;;;40.47;14.35;;;;;;;;;;5081541;28;20056;-64
2022/04/06 00:03:54;;;;;;;41.55;14.30;;;;;;;;;;5086529;28;20079;-64
2022/04/06 00:06:21;;;;;;;38.25;15.07;;;;;;;;;;5084293;28;20431;-64
2022/04/06 00:08:47;;;;;;;32.78;13.63;;;;;;;;;;5070126;28;20049;-63
2022/04/06 00:11:14;;;;;;;45.10;14.95;;;;;;;;;;5080255;28;20062;-63
2022/04/06 00:13:40;;;;;;;39.60;15.43;;;;;;;;;;5083934;28;20413;-63
2022/04/06 00:16:06;;;;;;;43.60;15.77;;;;;;;;;;5070606;28;20098;-63
2022/04/06 00:18:32;;;;;;;38.08;15.65;;;;;;;;;;5110950;27;20105;-63
2022/04/06 00:20:58;;;;;;;41.58;15.93;;;;;;;;;;5084174;28;20127;-61
2022/04/06 00:23:24;;;;;;;48.60;16.52;;;;;;;;;;5076900;28;20032;-62
2022/04/06 00:25:50;;;;;;;39.00;17.40;;;;;;;;;;5064061;28;20044;-62
2022/04/06 00:28:19;;;;;;;42.38;17.83;;;;;;;;;;5071709;28;20063;-63
2022/04/06 00:30:45;;;;;;;44.58;18.15;;;;;;;;;;5071294;28;20107;-62
2022/04/06 00:33:11;;;;;;;47.33;19.88;;;;;;;;;;5070624;28;20048;-63
2022/04/06 00:35:37;;;;;;;45.22;19.88;;;;;;;;;;5072192;28;20855;-62
2022/04/06 00:38:04;;;;;;;55.80;21.65;;;;;;;;;;5070128;28;20128;-62
2022/04/06 00:40:34;;;;;;;47.78;20.55;;;;;;;;;;5069994;28;20144;-63
2022/04/06 00:43:08;;;;;;;56.97;21.83;;;;;;;;;;5088360;28;20044;-63
2022/04/06 00:45:34;;;;;;;57.28;22.70;;;;;;;;;;5079154;28;20110;-62
2022/04/06 00:48:00;;;;;;;;;;;;;;;;;;5088241;28;20397;-64
2022/04/06 00:50:27;;;;;;;59.30;23.92;;;;;;;;;;5076874;28;19928;-63
2022/04/06 00:52:57;;;;;;;54.83;23.17;;;;;;;;;;5085390;28;20036;-63
2022/04/06 00:55:28;;;;;;;49.00;22.98;;;;;;;;;;5086508;28;20484;-64
2022/04/06 00:57:55;;;;;;;50.53;21.40;;;;;;;;;;5080270;28;20062;-64
2022/04/06 01:00:21;;;;;;;;;;;;;;;;;;5082726;28;20074;-63
2022/04/06 01:02:48;;;;;;;47.33;22.73;;;;;;;;;;5064652;28;19920;-64
2022/04/06 01:05:14;;;;;;;55.08;22.85;;;;;;;;;;5087072;28;20048;-64
2022/04/06 01:07:41;;;;;;;45.95;22.98;;;;;;;;;;5073410;28;20089;-64
2022/04/06 01:10:07;;;;;;;46.92;22.13;;;;;;;;;;5100733;28;20048;-63
2022/04/06 01:12:38;;;;;;;50.33;21.65;;;;;;;;;;5085609;28;20050;-63
2022/04/06 01:15:04;;;;;;;51.30;21.08;;;;;;;;;;5088138;28;20056;-64
2022/04/06 01:17:33;;;;;;;55.00;22.23;;;;;;;;;;5080597;28;20047;-62
2022/04/06 01:20:00;;;;;;;57.05;23.48;;;;;;;;;;5073285;28;20496;-63
2022/04/06 01:22:27;;;;;;;52.70;21.10;;;;;;;;;;5082631;28;20361;-63
2022/04/06 01:24:52;;;;;;;;;;;;;;;;;;5087006;28;20040;-62
2022/04/06 01:27:19;;;;;;;56.42;21.30;;;;;;;;;;5084135;28;19931;-64
2022/04/06 01:29:52;;;;;;;50.85;21.27;;;;;;;;;;5072180;28;20104;-63
2022/04/06 01:32:21;;;;;;;48.30;20.00;;;;;;;;;;5074306;28;20088;-63
2022/04/06 01:34:50;;;;;;;56.03;19.92;;;;;;;;;;5089323;28;20040;-63
2022/04/06 01:37:17;;;;;;;54.63;20.08;;;;;;;;;;5090129;28;20088;-62
2022/04/06 01:39:52;;;;;;;52.20;18.88;;;;;;;;;;5075686;28;20117;-63
2022/04/06 01:42:19;;;;;;;47.15;17.38;;;;;;;;;;5073018;28;20150;-63
2022/04/06 01:44:46;;;;;;;43.63;18.42;;;;;;;;;;5068475;28;20052;-63
2022/04/06 01:47:13;;;;;;;43.03;16.80;;;;;;;;;;5071717;28;20181;-63
2022/04/06 01:52:24;;;;;;;41.97;17.58;;;;;;;;;;5072547;28;20072;-62
2022/04/06 01:55:16;;;;;;;40.75;15.88;;;;;;;;;;5083394;28;20058;-67
2022/04/06 01:57:43;;;;;;;42.08;15.82;;;;;;;;;;5075000;28;20059;-65
2022/04/06 02:00:17;;;;;;;36.20;16.20;;;;;;;;;;5083722;28;20059;-64
2022/04/06 02:02:47;;;;;;;46.30;16.33;;;;;;;;;;5088207;28;20101;-63
2022/04/06 02:05:13;;;;;;;35.67;16.40;;;;;;;;;;5070723;28;20048;-65
2022/04/06 02:07:42;;;;;;;39.67;15.48;;;;;;;;;;5070480;28;20064;-64
2022/04/06 02:10:08;;;;;;;36.92;15.75;;;;;;;;;;5079355;28;20486;-63
2022/04/06 02:12:35;;;;;;;31.90;14.23;;;;;;;;;;5100134;28;20044;-63
2022/04/06 02:15:01;;;;;;;;;;;;;;;;;;5079370;28;20066;-62
2022/04/06 02:17:30;;;;;;;37.75;13.82;;;;;;;;;;5088088;28;19920;-62
2022/04/06 02:19:57;;;;;;;37.97;15.32;;;;;;;;;;5075346;28;20044;-62
2022/04/06 02:22:23;;;;;;;35.45;13.73;;;;;;;;;;5074828;28;20397;-63
2022/04/06 02:24:49;;;;;;;37.92;13.50;;;;;;;;;;5075570;28;20399;-63
2022/04/06 02:27:16;;;;;;;37.58;14.40;;;;;;;;;;5088248;28;20436;-64
2022/04/06 02:29:42;;;;;;;34.58;13.32;;;;;;;;;;5084404;28;20463;-64
2022/04/06 02:32:10;;;;;;;35.78;13.05;;;;;;;;;;5083687;28;20115;-64
2022/04/06 02:34:36;;;;;;;44.53;14.05;;;;;;;;;;5076415;28;20493;-64
2022/04/06 02:37:03;;;;;;;;;;;;;;;;;;5069663;28;20037;-65
2022/04/06 02:39:30;;;;;;;34.63;12.90;;;;;;;;;;5077510;28;19920;-64
2022/04/06 02:41:59;;;;;;;31.45;13.10;;;;;;;;;;5083294;28;20105;-65
2022/04/06 02:44:25;;;;;;;32.28;12.30;;;;;;;;;;5082716;28;20044;-64
2022/04/06 02:46:51;;;;;;;31.85;11.52;;;;;;;;;;5071127;28;20047;-63
2022/04/06 02:49:17;;;;;;;36.15;12.30;;;;;;;;;;5078388;28;20468;-67
2022/04/06 02:51:47;;;;;;;32.35;10.35;;;;;;;;;;5087275;28;20044;-65
2022/04/06 02:54:13;;;;;;;29.90;10.82;;;;;;;;;;5074511;28;20136;-63
2022/04/06 02:56:39;;;;;;;28.92;9.45;;;;;;;;;;5081029;28;20092;-63
2022/04/06 02:59:08;;;;;;;31.77;9.80;;;;;;;;;;5088738;28;20043;-63
2022/04/06 03:01:34;;;;;;;28.30;9.20;;;;;;;;;;5076346;28;20390;-63
2022/04/06 03:04:00;;;;;;;24.02;8.40;;;;;;;;;;5078144;28;20063;-63
2022/04/06 03:06:26;;;;;;;23.20;7.70;;;;;;;;;;5074260;28;20048;-63
2022/04/06 03:08:52;;;;;;;22.90;8.57;;;;;;;;;;5088460;28;20119;-65
2022/04/06 03:11:18;;;;;;;31.25;7.88;;;;;;;;;;5085289;28;20502;-64
2022/04/06 03:13:44;;;;;;;23.38;7.80;;;;;;;;;;5081350;28;20036;-62
2022/04/06 03:16:11;;;;;;;22.15;7.18;;;;;;;;;;5074207;28;20039;-63
2022/04/06 03:18:37;;;;;;;24.13;8.18;;;;;;;;;;5076662;28;20199;-63
2022/04/06 03:21:03;;;;;;;23.70;7.35;;;;;;;;;;5087466;28;20048;-63
2022/04/06 03:23:29;;;;;;;21.80;6.85;;;;;;;;;;5067535;28;20045;-63
2022/04/06 03:25:55;;;;;;;23.58;6.93;;;;;;;;;;5077051;28;20055;-63
2022/04/06 03:28:21;;;;;;;22.23;6.65;;;;;;;;;;5085229;28;20094;-63
2022/04/06 03:30:47;;;;;;;18.33;6.57;;;;;;;;;;5087696;28;20051;-63
2022/04/06 03:33:15;;;;;;;15.82;5.40;;;;;;;;;;5079672;28;20054;-63
2022/04/06 03:35:41;;;;;;;20.05;5.90;;;;;;;;;;5080509;28;20056;-62
2022/04/06 03:38:07;;;;;;;18.42;6.32;;;;;;;;;;5078280;28;20059;-62
2022/04/06 03:40:33;;;;;;;20.67;5.75;;;;;;;;;;5091831;28;20459;-62
2022/04/06 03:43:00;;;;;;;18.48;5.93;;;;;;;;;;5111858;27;20472;-65
2022/04/06 03:45:26;;;;;;;22.90;6.75;;;;;;;;;;5074545;28;20043;-64
2022/04/06 03:47:52;;;;;;;14.38;5.38;;;;;;;;;;5072541;28;20131;-64
2022/04/06 03:50:18;;;;;;;20.27;6.75;;;;;;;;;;5084536;28;20059;-64
2022/04/06 03:52:44;;;;;;;21.38;6.47;;;;;;;;;;5082512;28;20123;-65
2022/04/06 03:55:10;;;;;;;21.40;7.30;;;;;;;;;;5078754;28;20177;-65
2022/04/06 03:57:37;;;;;;;21.10;6.75;;;;;;;;;;5069755;28;20116;-65
2022/04/06 04:00:08;;;;;;;20.98;7.68;;;;;;;;;;5075867;28;20480;-65
2022/04/06 04:02:34;;;;;;;22.15;7.93;;;;;;;;;;5078452;28;20048;-65
2022/04/06 04:05:03;;;;;;;26.98;8.27;;;;;;;;;;5088452;28;20429;-63
2022/04/06 04:07:31;;;;;;;;;;;;;;;;;;5087962;28;20047;-65
2022/04/06 04:09:58;;;;;;;23.90;8.35;;;;;;;;;;5078852;28;19920;-60
2022/04/06 04:12:24;;;;;;;26.55;10.63;;;;;;;;;;5076101;28;20472;-62
2022/04/06 04:14:50;;;;;;;24.98;9.55;;;;;;;;;;5088271;28;20094;-63
2022/04/06 04:17:16;;;;;;;28.48;9.77;;;;;;;;;;5084713;28;20143;-63
2022/04/06 04:19:44;;;;;;;24.48;10.55;;;;;;;;;;5076952;28;20048;-64
2022/04/06 04:22:10;;;;;;;34.83;10.73;;;;;;;;;;5069186;28;20048;-64
2022/04/06 04:24:36;;;;;;;33.22;11.90;;;;;;;;;;5069974;28;20052;-64
2022/04/06 04:27:02;;;;;;;33.30;11.52;;;;;;;;;;5068056;28;20129;-63
2022/04/06 04:29:28;;;;;;;31.98;11.65;;;;;;;;;;5084689;28;20494;-61
2022/04/06 04:31:54;;;;;;;34.30;13.07;;;;;;;;;;5086662;28;20044;-63
2022/04/06 04:34:20;;;;;;;35.60;12.20;;;;;;;;;;5071502;28;20135;-64
2022/04/06 04:36:46;;;;;;;38.80;13.15;;;;;;;;;;5085349;28;20099;-65
2022/04/06 04:39:12;;;;;;;37.20;14.10;;;;;;;;;;5069593;28;20049;-63
2022/04/06 04:41:39;;;;;;;38.40;13.73;;;;;;;;;;5084352;28;20040;-64
2022/04/06 04:44:05;;;;;;;;;;;;;;;;;;5075415;28;20122;-63
2022/04/06 04:46:31;;;;;;;44.22;13.75;;;;;;;;;;5085428;28;20372;-62
2022/04/06 04:48:58;;;;;;;44.30;14.77;;;;;;;;;;5087121;28;20056;-63
2022/04/06 04:51:28;;;;;;;36.75;13.77;;;;;;;;;;5080056;28;20127;-61
2022/04/06 04:53:57;;;;;;;34.20;13.75;;;;;;;;;;5079748;28;20047;-63
2022/04/06 04:56:25;;;;;;;41.70;14.73;;;;;;;;;;5085793;28;20065;-64
2022/04/06 04:58:52;;;;;;;37.35;13.98;;;;;;;;;;5084663;28;20067;-62
2022/04/06 05:01:19;;;;;;;39.50;13.93;;;;;;;;;;5077958;28;20656;-62
2022/04/06 05:03:45;;;;;;;38.70;14.40;;;;;;;;;;5075761;28;20123;-63
2022/04/06 05:06:11;;;;;;;36.03;13.13;;;;;;;;;;5073899;28;20044;-64
2022/04/06 05:08:37;;;;;;;37.83;13.43;;;;;;;;;;5083019;28;20508;-63
2022/04/06 05:11:03;;;;;;;35.92;13.88;;;;;;;;;;5085335;28;20455;-63
2022/04/06 05:13:29;;;;;;;32.92;13.45;;;;;;;;;;5078174;28;20083;-63
2022/04/06 05:15:56;;;;;;;33.25;12.25;;;;;;;;;;5086069;28;20505;-64
2022/04/06 05:18:22;;;;;;;32.95;12.40;;;;;;;;;;5072569;28;20045;-63
2022/04/06 05:20:48;;;;;;;34.10;12.38;;;;;;;;;;5067830;28;20044;-62
2022/04/06 05:23:15;;;;;;;35.08;12.25;;;;;;;;;;5076232;28;20167;-62
2022/04/06 05:25:41;;;;;;;32.08;12.80;;;;;;;;;;5066835;28;20052;-62
2022/04/06 05:28:08;;;;;;;37.42;12.40;;;;;;;;;;5070279;28;20066;-63
2022/04/06 05:30:35;;;;;;;31.63;13.82;;;;;;;;;;5080614;28;20045;-63
2022/04/06 05:33:01;;;;;;;33.90;11.63;;;;;;;;;;5071865;28;20091;-63
2022/04/06 05:35:27;;;;;;;39.40;13.35;;;;;;;;;;5072613;28;20075;-63
2022/04/06 05:37:53;;;;;;;;;;;;;;;;;;5072747;28;20246;-62
2022/04/06 05:40:19;;;;;;;27.48;9.82;;;;;;;;;;5079900;28;19975;-61
2022/04/06 05:42:46;;;;;;;38.22;13.20;;;;;;;;;;5082132;28;20066;-64
2022/04/06 05:45:12;;;;;;;41.67;13.18;;;;;;;;;;5071326;28;20453;-64
2022/04/06 05:47:38;;;;;;;;;;;;;;;;;;5084174;28;20054;-63
2022/04/06 05:50:08;;;;;;;39.28;13.98;;;;;;;;;;5073117;28;19987;-62
2022/04/06 05:52:35;;;;;;;35.50;13.05;;;;;;;;;;5053480;28;20048;-62
2022/04/06 05:55:02;;;;;;;35.28;12.77;;;;;;;;;;5067664;28;20040;-62
2022/04/06 05:57:29;;;;;;;36.63;13.40;;;;;;;;;;5071141;28;20090;-63
2022/04/06 05:59:55;;;;;;;37.65;14.85;;;;;;;;;;5068950;28;20056;-63
2022/04/06 06:02:23;;;;;;;43.88;15.23;;;;;;;;;;5070745;28;20115;-62
2022/04/06 06:04:50;;;;;;;38.75;15.57;;;;;;;;;;5067104;28;20130;-62
2022/04/06 06:07:18;;;;;;;46.08;16.05;;;;;;;;;;5070897;28;20407;-63
2022/04/06 06:09:44;;;;;;;40.53;15.18;;;;;;;;;;5073601;28;20036;-62
2022/04/06 06:12:10;;;;;;;36.33;16.48;;;;;;;;;;5071417;28;20387;-65
2022/04/06 06:14:37;;;;;;;44.05;16.45;;;;;;;;;;5072836;28;20077;-62
2022/04/06 06:17:03;;;;;;;37.05;14.63;;;;;;;;;;5070649;28;20044;-63
2022/04/06 06:19:29;;;;;;;40.20;15.48;;;;;;;;;;5100008;28;20048;-62
2022/04/06 06:21:58;;;;;;;40.97;15.73;;;;;;;;;;5073778;28;20055;-64
2022/04/06 06:24:24;;;;;;;36.67;14.63;;;;;;;;;;5076468;28;20150;-63
2022/04/06 06:26:54;;;;;;;37.67;13.63;;;;;;;;;;5072719;28;20056;-63
2022/04/06 06:29:20;;;;;;;32.85;13.73;;;;;;;;;;5074055;28;20053;-64
2022/04/06 06:31:46;;;;;;;33.72;13.38;;;;;;;;;;5077398;28;20040;-62
2022/04/06 06:34:12;;;;;;;31.85;13.55;;;;;;;;;;5071264;28;20063;-67
2022/04/06 06:36:38;;;;;;;37.42;13.63;;;;;;;;;;5073065;28;20044;-66
2022/04/06 06:39:04;;;;;;;30.70;13.13;;;;;;;;;;5071058;28;20155;-64
2022/04/06 06:41:35;;;;;;;32.40;12.73;;;;;;;;;;5082068;28;20147;-66
2022/04/06 06:44:01;;;;;;;33.33;13.43;;;;;;;;;;5088356;28;20056;-61
2022/04/06 06:46:29;;;;;;;28.83;12.38;;;;;;;;;;5084921;28;20093;-64
2022/04/06 06:49:05;;;;;;;29.23;12.10;;;;;;;;;;5082608;28;20522;-63
2022/04/06 06:51:32;;;;;;;36.40;13.07;;;;;;;;;;5089240;28;20067;-62
2022/04/06 06:54:01;;;;;;;28.63;12.57;;;;;;;;;;5083764;28;20037;-64
2022/04/06 06:56:31;;;;;;;32.28;13.90;;;;;;;;;;5084762;28;20537;-63
2022/04/06 06:58:57;;;;;;;33.28;14.10;;;;;;;;;;5088487;28;20395;-63
2022/04/06 07:01:32;;;;;;;31.75;11.88;;;;;;;;;;5087203;28;20052;-63
2022/04/06 07:03:58;;;;;;;35.28;11.82;;;;;;;;;;5085482;28;20048;-62
2022/04/06 07:06:24;;;;;;;28.60;11.18;;;;;;;;;;5089464;28;20188;-63
2022/04/06 07:08:52;;;;;;;24.88;10.20;;;;;;;;;;5085068;28;20044;-64
2022/04/06 07:11:18;;;;;;;26.83;9.95;;;;;;;;;;5079511;28;20049;-64
2022/04/06 07:13:44;;;;;;;23.88;9.30;;;;;;;;;;5070208;28;20051;-65
2022/04/06 07:16:15;;;;;;;21.17;7.57;;;;;;;;;;5085232;28;20067;-63
2022/04/06 07:18:41;;;;;;;23.83;8.52;;;;;;;;;;5083400;28;20123;-64
2022/04/06 07:21:09;;;;;;;23.17;8.32;;;;;;;;;;5086169;28;20134;-64
2022/04/06 07:23:36;;;;;;;29.95;8.88;;;;;;;;;;5088266;28;20039;-64
2022/04/06 07:26:03;;;;;;;24.63;8.07;;;;;;;;;;5084519;28;20052;-63
2022/04/06 07:28:30;;;;;;;25.15;9.10;;;;;;;;;;5103512;28;20104;-61
2022/04/06 07:30:56;;;;;;;25.13;9.07;;;;;;;;;;5110879;28;20074;-65
2022/04/06 07:33:25;;;;;;;25.00;8.35;;;;;;;;;;5091384;28;20078;-65
2022/04/06 07:35:51;;;;;;;;;;;;;;;;;;5089450;28;20047;-63
2022/04/06 07:38:18;;;;;;;24.83;9.25;;;;;;;;;;5088358;28;20014;-63
2022/04/06 07:40:44;;;;;;;22.88;8.32;;;;;;;;;;5089277;28;20106;-63
2022/04/06 07:43:11;;;;;;;26.75;9.68;;;;;;;;;;5087907;28;20120;-64
2022/04/06 07:45:40;;;;;;;23.77;9.20;;;;;;;;;;5088538;28;20300;-64
2022/04/06 07:48:06;;;;;;;20.00;8.18;;;;;;;;;;5088806;28;20152;-62
2022/04/06 07:50:32;;;;;;;21.75;7.88;;;;;;;;;;5086718;28;20072;-62
2022/04/06 07:52:59;;;;;;;24.55;8.40;;;;;;;;;;5090052;28;20138;-64
2022/04/06 07:55:25;;;;;;;26.00;9.02;;;;;;;;;;5088452;28;20103;-64
2022/04/06 07:57:51;;;;;;;27.65;7.85;;;;;;;;;;5088940;28;20447;-64
2022/04/06 08:00:17;;;;;;;25.05;9.07;;;;;;;;;;5088441;28;20123;-64
2022/04/06 08:02:44;;;;;;;27.60;9.98;;;;;;;;;;5088087;28;20049;-64
2022/04/06 08:05:10;;;;;;;24.33;8.60;;;;;;;;;;5087456;28;20059;-66
2022/04/06 08:07:39;;;;;;;29.33;9.95;;;;;;;;;;5087048;28;20043;-64
2022/04/06 08:10:09;;;;;;;28.65;9.77;;;;;;;;;;5089218;28;20127;-65
2022/04/06 08:12:36;;;;;;;30.23;9.55;;;;;;;;;;5088983;27;20072;-63
2022/04/06 08:15:04;;;;;;;29.80;10.48;;;;;;;;;;5089421;28;20044;-63
2022/04/06 08:17:35;;;;;;;30.33;9.35;;;;;;;;;;5086756;28;20480;-63
2022/04/06 08:20:04;;;;;;;33.35;9.75;;;;;;;;;;5087962;28;20052;-64
2022/04/06 08:22:31;;;;;;;28.33;8.55;;;;;;;;;;5090446;28;20054;-62
2022/04/06 08:24:58;;;;;;;28.48;9.95;;;;;;;;;;5089244;28;20127;-62
2022/04/06 08:27:24;;;;;;;23.27;8.60;;;;;;;;;;5088962;28;20415;-64
2022/04/06 08:29:50;;;;;;;30.90;8.98;;;;;;;;;;5088682;28;20138;-62
2022/04/06 08:32:18;;;;;;;24.65;8.95;;;;;;;;;;5095676;28;20116;-63
2022/04/06 08:34:44;;;;;;;22.65;9.02;;;;;;;;;;5108318;28;20047;-62
2022/04/06 08:37:13;;;;;;;28.95;9.23;;;;;;;;;;5107479;28;20054;-61
2022/04/06 08:39:39;;;;;;;25.80;8.52;;;;;;;;;;5108344;28;20039;-62
2022/04/06 08:42:07;;;;;;;27.50;8.70;;;;;;;;;;5104364;28;20051;-63
2022/04/06 08:44:33;;;;;;;28.23;9.00;;;;;;;;;;5086885;28;20396;-62
2022/04/06 08:47:03;;;;;;;27.20;8.80;;;;;;;;;;5087847;28;20112;-62
2022/04/06 08:49:30;;;;;;;28.45;9.13;;;;;;;;;;5085649;28;20048;-63
2022/04/06 08:51:58;;;;;;;24.60;8.93;;;;;;;;;;5086518;28;20435;-67
2022/04/06 08:54:24;;;;;;;26.17;9.00;;;;;;;;;;5082530;28;20230;-63
2022/04/06 08:56:51;;;;;;;25.52;8.18;;;;;;;;;;5107278;28;20055;-64
2022/04/06 08:59:17;;;;;;;;;;;;;;;;;;5108688;28;20100;-62
2022/04/06 09:01:43;;;;;;;28.10;8.68;;;;;;;;;;5107204;28;19924;-61
2022/04/06 09:04:10;;;;;;;27.35;7.68;;;;;;;;;;5096249;28;20036;-62
2022/04/06 09:06:36;;;;;;;;;;;;;;;;;;5083810;28;20119;-63
2022/04/06 09:09:05;;;;;;;23.27;7.95;;;;;;;;;;5079667;28;19920;-62
2022/04/06 09:11:40;;;;;;;21.20;7.32;;;;;;;;;;5082040;28;20044;-62
2022/04/06 09:14:07;;;;;;;24.88;7.75;;;;;;;;;;5078664;28;20064;-64
2022/04/06 09:16:36;;;;;;;24.70;8.10;;;;;;;;;;5071343;28;20127;-63
2022/04/06 09:19:12;;;;;;;27.92;7.57;;;;;;;;;;5076007;28;20119;-62
2022/04/06 09:21:39;;;;;;;19.17;7.53;;;;;;;;;;5079444;28;20072;-63
2022/04/06 09:24:05;;;;;;;25.55;8.05;;;;;;;;;;5076183;28;20348;-63
2022/04/06 09:26:32;;;;;;;22.15;7.30;;;;;;;;;;5068590;28;20052;-62
2022/04/06 09:29:01;;;;;;;25.23;6.93;;;;;;;;;;5067603;28;20049;-62
2022/04/06 09:31:38;;;;;;;26.55;7.93;;;;;;;;;;5078494;28;20437;-61
2022/04/06 09:34:04;;;;;;;28.77;8.00;;;;;;;;;;5077000;28;20059;-64
2022/04/06 09:36:31;;;;;;;27.38;7.72;;;;;;;;;;5081479;28;20063;-62
2022/04/06 09:38:57;;;;;;;21.40;7.40;;;;;;;;;;5076024;28;20041;-61
2022/04/06 09:41:25;;;;;;;22.88;7.55;;;;;;;;;;5073217;28;20080;-60
2022/04/06 09:43:53;;;;;;;23.33;8.30;;;;;;;;;;5077170;28;20407;-63
2022/04/06 09:49:15;;;;;;;25.02;8.00;;;;;;;;;;5082055;28;20064;-61
2022/04/06 09:51:50;;;;;;;28.67;8.40;;;;;;;;;;5084401;28;20515;-62
2022/04/06 09:54:16;;;;;;;25.45;9.10;;;;;;;;;;5076588;28;20135;-65
2022/04/06 09:56:44;;;;;;;32.28;9.15;;;;;;;;;;5081868;28;20456;-64
2022/04/06 09:59:11;;;;;;;24.13;8.30;;;;;;;;;;5085945;28;20177;-61
2022/04/06 10:01:39;;;;;;;25.35;8.50;;;;;;;;;;5110300;27;20472;-61
2022/04/06 10:04:07;;;;;;;28.58;8.18;;;;;;;;;;5073380;28;20048;-63
2022/04/06 10:06:38;;;;;;;23.75;8.10;;;;;;;;;;5073017;28;20508;-67
2022/04/06 10:09:07;;;;;;;27.20;8.55;;;;;;;;;;5085746;28;20040;-62
2022/04/06 10:11:37;;;;;;;23.17;7.93;;;;;;;;;;5084009;28;20368;-63
2022/04/06 10:14:04;;;;;;;26.98;8.32;;;;;;;;;;5064529;28;20128;-62
2022/04/06 10:16:36;;;;;;;29.88;8.48;;;;;;;;;;5083252;28;20593;-63
2022/04/06 10:19:03;;;;;;;32.13;8.93;;;;;;;;;;5087643;28;20115;-63
2022/04/06 10:21:53;;;;;;;23.33;8.23;;;;;;;;;;5083458;28;20036;-64
2022/04/06 10:24:38;;;;;;;26.45;8.00;;;;;;;;;;5086394;28;20044;-63
2022/04/06 10:27:10;;;;;;;32.15;8.73;;;;;;;;;;5080109;28;20105;-64
2022/04/06 10:29:55;;;;;;;28.10;8.57;;;;;;;;;;5079757;28;20087;-65
2022/04/06 10:32:36;;;;;;;21.30;7.10;;;;;;;;;;5110097;27;20060;-60
2022/04/06 10:35:22;;;;;;;34.60;9.90;;;;;;;;;;5087590;28;20040;-62
2022/04/06 10:37:49;;;;;;;28.88;9.75;;;;;;;;;;5085834;28;20062;-62
2022/04/06 10:40:15;;;;;;;30.80;9.00;;;;;;;;;;5087311;28;20349;-62
2022/04/06 10:42:42;;;;;;;26.83;8.48;;;;;;;;;;5089086;28;20050;-64
2022/04/06 10:45:29;;;;;;;31.08;8.63;;;;;;;;;;5087323;28;20047;-65
2022/04/06 10:48:16;;;;;;;30.52;9.85;;;;;;;;;;5081526;28;20058;-62
2022/04/06 10:50:43;;;;;;;29.08;9.63;;;;;;;;;;5085179;28;20075;-63
2022/04/06 10:53:18;;;;;;;33.60;11.23;;;;;;;;;;5086986;28;20058;-63
2022/04/06 10:56:16;;;;;;;31.63;11.38;;;;;;;;;;5076965;28;20158;-63
2022/04/06 10:58:54;;;;;;;30.63;10.82;;;;;;;;;;5065583;28;20053;-63
2022/04/06 11:01:26;;;;;;;34.95;11.18;;;;;;;;;;5079328;28;20060;-64
2022/04/06 11:04:03;;;;;;;28.83;10.13;;;;;;;;;;5082541;28;20044;-66
2022/04/06 11:06:41;;;;;;;37.65;11.82;;;;;;;;;;5084018;28;20044;-64
2022/04/06 11:12:13;;;;;;;36.58;12.10;;;;;;;;;;5097489;28;20119;-63
2022/04/06 11:14:39;;;;;;;32.40;12.13;;;;;;;;;;5075718;28;20082;-62
2022/04/06 11:17:24;;;;;;;37.20;11.38;;;;;;;;;;5087965;28;20075;-65
2022/04/06 11:19:54;;;;;;;37.20;10.55;;;;;;;;;;5081143;28;20121;-64
2022/04/06 11:22:20;;;;;;;;;;;;;;;;;;5079917;28;20124;-63
2022/04/06 11:24:47;;;;;;;37.53;11.23;;;;;;;;;;5068705;28;20332;-63
2022/04/06 11:27:34;;;;;;;37.85;10.43;;;;;;;;;;5073898;28;20120;-62
2022/04/06 11:30:14;;;;;;;44.72;10.38;;;;;;;;;;5083373;28;20072;-61
2022/04/06 11:32:50;;;;;;;33.25;9.77;;;;;;;;;;5069533;28;20048;-63
2022/04/06 11:35:16;;;;;;;35.40;11.13;;;;;;;;;;5074572;28;20048;-61
2022/04/06 11:37:43;;;;;;;42.05;11.25;;;;;;;;;;5077120;28;20054;-62
2022/04/06 11:40:12;;;;;;;38.63;10.70;;;;;;;;;;5086498;28;20105;-61
2022/04/06 11:42:39;;;;;;;28.17;9.75;;;;;;;;;;5085640;28;20040;-62
2022/04/06 11:45:06;;;;;;;32.47;10.18;;;;;;;;;;5078000;28;20031;-61
2022/04/06 11:47:32;;;;;;;;;;;;;;;;;;5100034;28;20064;-64
2022/04/06 11:49:58;;;;;;;37.17;10.07;;;;;;;;;;5084817;28;19989;-65
2022/04/06 11:52:25;;;;;;;31.55;8.35;;;;;;;;;;5086718;28;20068;-63
2022/04/06 11:54:52;;;;;;;30.75;8.85;;;;;;;;;;5076991;28;20111;-62
2022/04/06 11:57:18;;;;;;;35.17;9.18;;;;;;;;;;5078836;28;20469;-62
2022/04/06 11:59:51;;;;;;;31.45;9.25;;;;;;;;;;5091478;28;20119;-62
2022/04/06 12:02:19;;;;;;;28.00;8.20;;;;;;;;;;5085898;28;20066;-62
2022/04/06 12:04:48;;;;;;;31.38;8.48;;;;;;;;;;5089955;28;20036;-64
2022/04/06 12:07:21;;;;;;;26.40;7.43;;;;;;;;;;5072936;28;20048;-61
2022/04/06 12:09:47;;;;;;;35.47;8.10;;;;;;;;;;5087417;28;20111;-61
2022/04/06 12:12:16;;;;;;;27.90;7.18;;;;;;;;;;5099731;28;20101;-64
2022/04/06 12:14:43;;;;;;;26.15;7.28;;;;;;;;;;5093497;28;20480;-64
2022/04/06 12:17:09;;;;;;;;;;;;;;;;;;5099659;28;20101;-62
2022/04/06 12:19:35;;;;;;;28.35;6.80;;;;;;;;;;5098588;28;20288;-64
2022/04/06 12:22:11;;;;;;;32.15;6.70;;;;;;;;;;5100334;28;20119;-63
2022/04/06 12:24:43;;;;;;;24.13;5.90;;;;;;;;;;5107351;28;20080;-65
2022/04/06 12:27:10;;;;;;;24.25;5.85;;;;;;;;;;5101005;28;20380;-63
2022/04/06 12:29:36;;;;;;;;;;;;;;;;;;5107822;28;20181;-66
2022/04/06 12:32:03;;;;;;;25.92;6.05;;;;;;;;;;5106925;28;19920;-63
2022/04/06 12:34:31;;;;;;;23.75;6.00;;;;;;;;;;5106468;28;20192;-64
2022/04/06 12:36:57;;;;;;;20.10;5.45;;;;;;;;;;5106034;28;20064;-61
2022/04/06 12:39:26;;;;;;;22.48;5.93;;;;;;;;;;5106933;28;20052;-62
2022/04/06 12:41:52;;;;;;;21.27;6.25;;;;;;;;;;5106384;28;20432;-61
2022/04/06 12:44:19;;;;;;;20.08;5.47;;;;;;;;;;5106063;28;20419;-62
2022/04/06 12:46:47;;;;;;;22.90;5.53;;;;;;;;;;5105499;28;20079;-62
2022/04/06 12:49:22;;;;;;;27.80;6.30;;;;;;;;;;5088683;28;20058;-63
2022/04/06 12:51:49;;;;;;;20.80;6.05;;;;;;;;;;5106076;28;20059;-63
2022/04/06 12:54:17;;;;;;;;;;;;;;;;;;5106406;28;20046;-63
2022/04/06 12:57:13;;;;;;;23.33;6.13;;;;;;;;;;5096383;28;19920;-64
2022/04/06 12:59:41;;;;;;;20.98;5.00;;;;;;;;;;5084237;28;20149;-66
2022/04/06 13:02:17;;;;;;;19.67;5.55;;;;;;;;;;5074866;28;20141;-64
2022/04/06 13:04:44;;;;;;;24.98;6.28;;;;;;;;;;5078008;28;20048;-63
2022/04/06 13:07:11;;;;;;;20.38;5.93;;;;;;;;;;5084107;28;20067;-63
2022/04/06 13:09:47;;;;;;;21.50;5.57;;;;;;;;;;5082918;28;20056;-62
2022/04/06 13:12:17;;;;;;;24.85;5.65;;;;;;;;;;5068027;28;20072;-64
2022/04/06 13:14:44;;;;;;;17.02;5.00;;;;;;;;;;5072784;28;20044;-63
2022/04/06 13:17:10;;;;;;;20.63;4.70;;;;;;;;;;5102564;28;20066;-64
2022/04/06 13:19:39;;;;;;;19.80;5.35;;;;;;;;;;5071505;28;20068;-64
2022/04/06 13:22:05;;;;;;;24.55;6.00;;;;;;;;;;5074194;28;20476;-62
2022/04/06 13:24:32;;;;;;;20.92;5.72;;;;;;;;;;5066228;28;20037;-63
2022/04/06 13:26:58;;;;;;;19.52;5.00;;;;;;;;;;5084310;28;20074;-62
2022/04/06 13:29:24;;;;;;;24.77;6.40;;;;;;;;;;5069825;28;20898;-63
2022/04/06 13:31:50;;;;;;;23.67;5.15;;;;;;;;;;5086122;28;20486;-64
2022/04/06 13:34:19;;;;;;;21.17;4.30;;;;;;;;;;5087436;28;20444;-62
2022/04/06 13:36:45;;;;;;;20.65;5.43;;;;;;;;;;5087937;28;20044;-62
2022/04/06 13:39:12;;;;;;;20.67;6.15;;;;;;;;;;5090157;28;20088;-63
2022/04/06 13:41:39;;;;;;;27.15;5.50;;;;;;;;;;5090790;28;20330;-63
2022/04/06 13:44:05;;;;;;;18.70;5.10;;;;;;;;;;5094803;28;20047;-65
2022/04/06 13:46:31;;;;;;;22.52;5.57;;;;;;;;;;5096399;28;20044;-62
2022/04/06 13:48:57;;;;;;;19.98;4.20;;;;;;;;;;5090267;28;20562;-63
2022/04/06 13:51:24;;;;;;;17.20;4.63;;;;;;;;;;5082335;28;20048;-63
2022/04/06 13:53:50;;;;;;;22.98;5.43;;;;;;;;;;5077736;28;20140;-64
2022/04/06 13:56:17;;;;;;;18.02;5.05;;;;;;;;;;5104035;28;20055;-64
2022/04/06 13:58:43;;;;;;;17.23;4.32;;;;;;;;;;5081844;28;20044;-65
2022/04/06 14:01:09;;;;;;;;;;;;;;;;;;5081698;28;20111;-64
2022/04/06 14:03:37;;;;;;;19.35;4.47;;;;;;;;;;5086089;28;20352;-62
2022/04/06 14:06:03;;;;;;;19.40;5.25;;;;;;;;;;5086138;28;20052;-63
2022/04/06 14:08:31;;;;;;;14.82;4.05;;;;;;;;;;5088724;28;20119;-63
2022/04/06 14:10:58;;;;;;;22.20;4.65;;;;;;;;;;5088336;28;20059;-62
2022/04/06 14:13:24;;;;;;;15.82;4.40;;;;;;;;;;5084930;28;20555;-67
2022/04/06 14:15:50;;;;;;;13.50;3.80;;;;;;;;;;5082576;28;20044;-64
2022/04/06 14:18:19;;;;;;;14.88;4.05;;;;;;;;;;5087053;28;20055;-62
2022/04/06 14:20:47;;;;;;;12.18;3.40;;;;;;;;;;5081155;28;20120;-68
2022/04/06 14:23:14;;;;;;;11.73;3.25;;;;;;;;;;5085717;28;20463;-63
2022/04/06 14:25:41;;;;;;;13.30;2.97;;;;;;;;;;5089438;28;20333;-64
2022/04/06 14:28:08;;;;;;;14.18;3.30;;;;;;;;;;5066814;28;20099;-64
2022/04/06 14:30:34;;;;;;;16.52;3.55;;;;;;;;;;5073638;28;20467;-63
2022/04/06 14:33:03;;;;;;;13.85;3.78;;;;;;;;;;5090185;28;20116;-64
2022/04/06 14:35:33;;;;;;;12.95;3.45;;;;;;;;;;5088271;28;20063;-64
2022/04/06 14:37:59;;;;;;;13.63;3.70;;;;;;;;;;5088765;28;20115;-64
2022/04/06 14:40:26;;;;;;;14.07;3.28;;;;;;;;;;5097018;28;20137;-64
2022/04/06 14:42:52;;;;;;;13.77;3.70;;;;;;;;;;5086837;28;20510;-62
2022/04/06 14:45:18;;;;;;;13.65;3.90;;;;;;;;;;5088318;28;20044;-61